sensor_id;sensor_type;location;lat;lon;timestamp;temperature;humidity
7666;DHT22;3875;46.562;4.898;2023-02-19T00:01:23;13.20;81.60
7666;DHT22;3875;46.562;4.898;2023-02-19T00:03:51;13.30;81.60
7666;DHT22;3875;46.562;4.898;2023-02-19T00:06:18;13.20;81.60
7666;DHT22;3875;46.562;4.898;2023-02-19T00:08:44;13.20;81.60
7666;DHT22;3875;46.562;4.898;2023-02-19T00:11:11;13.20;81.70
7666;DHT22;3875;46.562;4.898;2023-02-19T00:13:40;13.20;81.80
7666;DHT22;3875;46.562;4.898;2023-02-19T00:16:11;13.20;81.90
7666;DHT22;3875;46.562;4.898;2023-02-19T00:18:38;13.20;81.90
7666;DHT22;3875;46.562;4.898;2023-02-19T00:21:04;13.20;81.90
7666;DHT22;3875;46.562;4.898;2023-02-19T00:23:30;13.10;82.00
7666;DHT22;3875;46.562;4.898;2023-02-19T00:25:56;13.10;82.20
7666;DHT22;3875;46.562;4.898;2023-02-19T00:28:22;13.10;82.20
7666;DHT22;3875;46.562;4.898;2023-02-19T00:30:48;13.10;82.30
7666;DHT22;3875;46.562;4.898;2023-02-19T00:33:14;13.10;82.40
7666;DHT22;3875;46.562;4.898;2023-02-19T00:35:41;13.00;82.40
7666;DHT22;3875;46.562;4.898;2023-02-19T00:38:06;13.00;82.50
7666;DHT22;3875;46.562;4.898;2023-02-19T00:40:32;13.00;82.50
7666;DHT22;3875;46.562;4.898;2023-02-19T00:42:58;13.00;82.50
7666;DHT22;3875;46.562;4.898;2023-02-19T00:45:23;13.00;82.60
7666;DHT22;3875;46.562;4.898;2023-02-19T00:47:49;13.00;82.60
7666;DHT22;3875;46.562;4.898;2023-02-19T00:50:15;12.90;82.60
7666;DHT22;3875;46.562;4.898;2023-02-19T00:52:40;12.90;82.70
7666;DHT22;3875;46.562;4.898;2023-02-19T00:55:06;12.90;82.80
7666;DHT22;3875;46.562;4.898;2023-02-19T00:57:32;12.80;83.00
7666;DHT22;3875;46.562;4.898;2023-02-19T00:59:57;12.80;83.00
7666;DHT22;3875;46.562;4.898;2023-02-19T01:02:23;12.80;83.10
7666;DHT22;3875;46.562;4.898;2023-02-19T01:04:49;12.80;83.10
7666;DHT22;3875;46.562;4.898;2023-02-19T01:07:14;12.80;83.10
7666;DHT22;3875;46.562;4.898;2023-02-19T01:09:40;12.80;83.20
7666;DHT22;3875;46.562;4.898;2023-02-19T01:12:06;12.80;83.20
7666;DHT22;3875;46.562;4.898;2023-02-19T01:14:32;12.80;83.20
7666;DHT22;3875;46.562;4.898;2023-02-19T01:16:58;12.80;83.20
7666;DHT22;3875;46.562;4.898;2023-02-19T01:19:23;12.80;83.20
7666;DHT22;3875;46.562;4.898;2023-02-19T01:21:49;12.80;83.20
7666;DHT22;3875;46.562;4.898;2023-02-19T01:24:15;12.90;83.20
7666;DHT22;3875;46.562;4.898;2023-02-19T01:26:41;12.80;83.20
7666;DHT22;3875;46.562;4.898;2023-02-19T01:29:07;12.90;83.20
7666;DHT22;3875;46.562;4.898;2023-02-19T01:31:33;12.90;83.20
7666;DHT22;3875;46.562;4.898;2023-02-19T01:34:01;12.90;83.20
7666;DHT22;3875;46.562;4.898;2023-02-19T01:36:28;12.90;83.30
7666;DHT22;3875;46.562;4.898;2023-02-19T01:38:54;12.90;83.30
7666;DHT22;3875;46.562;4.898;2023-02-19T01:41:23;12.90;83.30
7666;DHT22;3875;46.562;4.898;2023-02-19T01:46:39;12.90;83.30
7666;DHT22;3875;46.562;4.898;2023-02-19T01:49:15;12.80;83.50
7666;DHT22;3875;46.562;4.898;2023-02-19T01:51:48;12.80;83.50
7666;DHT22;3875;46.562;4.898;2023-02-19T01:54:16;12.80;83.50
7666;DHT22;3875;46.562;4.898;2023-02-19T01:56:44;12.70;83.70
7666;DHT22;3875;46.562;4.898;2023-02-19T01:59:13;12.70;83.70
7666;DHT22;3875;46.562;4.898;2023-02-19T02:01:39;12.70;83.80
7666;DHT22;3875;46.562;4.898;2023-02-19T02:04:07;12.70;83.80
7666;DHT22;3875;46.562;4.898;2023-02-19T02:06:54;12.70;83.90
7666;DHT22;3875;46.562;4.898;2023-02-19T02:09:23;12.70;83.90
7666;DHT22;3875;46.562;4.898;2023-02-19T02:12:09;12.60;84.00
7666;DHT22;3875;46.562;4.898;2023-02-19T02:14:38;12.50;84.30
7666;DHT22;3875;46.562;4.898;2023-02-19T02:22:37;12.60;84.20
7666;DHT22;3875;46.562;4.898;2023-02-19T02:27:53;12.60;84.10
7666;DHT22;3875;46.562;4.898;2023-02-19T02:33:11;12.60;84.10
7666;DHT22;3875;46.562;4.898;2023-02-19T02:38:32;12.60;84.00
7666;DHT22;3875;46.562;4.898;2023-02-19T02:40:59;12.60;84.00
7666;DHT22;3875;46.562;4.898;2023-02-19T02:43:26;12.70;84.00
7666;DHT22;3875;46.562;4.898;2023-02-19T02:45:52;12.70;83.90
7666;DHT22;3875;46.562;4.898;2023-02-19T02:52:09;12.60;84.20
7666;DHT22;3875;46.562;4.898;2023-02-19T02:54:13;12.50;84.20
7666;DHT22;3875;46.562;4.898;2023-02-19T02:56:59;12.60;84.30
7666;DHT22;3875;46.562;4.898;2023-02-19T02:59:29;12.60;84.30
7666;DHT22;3875;46.562;4.898;2023-02-19T03:02:06;12.60;84.30
7666;DHT22;3875;46.562;4.898;2023-02-19T03:10:35;12.50;84.40
7666;DHT22;3875;46.562;4.898;2023-02-19T03:13:03;12.40;84.70
7666;DHT22;3875;46.562;4.898;2023-02-19T03:15:57;12.30;85.00
7666;DHT22;3875;46.562;4.898;2023-02-19T03:18:44;12.30;85.00
7666;DHT22;3875;46.562;4.898;2023-02-19T03:21:31;12.30;85.00
7666;DHT22;3875;46.562;4.898;2023-02-19T03:23:59;12.30;84.80
7666;DHT22;3875;46.562;4.898;2023-02-19T03:27:04;12.30;84.80
7666;DHT22;3875;46.562;4.898;2023-02-19T03:29:34;12.30;84.80
7666;DHT22;3875;46.562;4.898;2023-02-19T03:32:05;12.40;84.60
7666;DHT22;3875;46.562;4.898;2023-02-19T03:34:40;12.40;84.60
7666;DHT22;3875;46.562;4.898;2023-02-19T03:37:13;12.40;84.60
7666;DHT22;3875;46.562;4.898;2023-02-19T03:39:40;12.30;84.80
7666;DHT22;3875;46.562;4.898;2023-02-19T03:45:06;12.30;84.80
7666;DHT22;3875;46.562;4.898;2023-02-19T03:50:29;12.40;84.50
7666;DHT22;3875;46.562;4.898;2023-02-19T03:53:15;12.40;84.40
7666;DHT22;3875;46.562;4.898;2023-02-19T03:58:50;12.40;84.30
7666;DHT22;3875;46.562;4.898;2023-02-19T04:01:26;12.40;84.30
7666;DHT22;3875;46.562;4.898;2023-02-19T04:04:08;12.40;84.30
7666;DHT22;3875;46.562;4.898;2023-02-19T04:06:38;12.40;84.30
7666;DHT22;3875;46.562;4.898;2023-02-19T04:09:07;12.40;84.40
7666;DHT22;3875;46.562;4.898;2023-02-19T04:11:35;12.40;84.60
7666;DHT22;3875;46.562;4.898;2023-02-19T04:16:29;12.40;84.40
7666;DHT22;3875;46.562;4.898;2023-02-19T04:19:08;12.40;84.40
7666;DHT22;3875;46.562;4.898;2023-02-19T04:21:35;12.40;84.60
7666;DHT22;3875;46.562;4.898;2023-02-19T04:24:06;12.40;84.60
7666;DHT22;3875;46.562;4.898;2023-02-19T04:26:34;12.30;84.60
7666;DHT22;3875;46.562;4.898;2023-02-19T04:29:00;12.30;84.60
7666;DHT22;3875;46.562;4.898;2023-02-19T04:31:28;12.30;84.80
7666;DHT22;3875;46.562;4.898;2023-02-19T04:33:54;12.30;84.80
7666;DHT22;3875;46.562;4.898;2023-02-19T04:36:20;12.30;84.80
7666;DHT22;3875;46.562;4.898;2023-02-19T04:38:45;12.30;84.80
7666;DHT22;3875;46.562;4.898;2023-02-19T04:41:11;12.30;84.90
7666;DHT22;3875;46.562;4.898;2023-02-19T04:43:37;12.20;85.10
7666;DHT22;3875;46.562;4.898;2023-02-19T04:46:02;12.10;85.20
7666;DHT22;3875;46.562;4.898;2023-02-19T04:48:28;12.10;85.20
7666;DHT22;3875;46.562;4.898;2023-02-19T04:50:54;12.10;85.30
7666;DHT22;3875;46.562;4.898;2023-02-19T04:53:20;12.10;85.30
7666;DHT22;3875;46.562;4.898;2023-02-19T04:55:46;12.10;85.30
7666;DHT22;3875;46.562;4.898;2023-02-19T04:58:12;12.10;85.30
7666;DHT22;3875;46.562;4.898;2023-02-19T05:00:38;12.00;85.40
7666;DHT22;3875;46.562;4.898;2023-02-19T05:03:04;12.00;85.40
7666;DHT22;3875;46.562;4.898;2023-02-19T05:05:30;12.00;85.40
7666;DHT22;3875;46.562;4.898;2023-02-19T05:07:55;11.90;85.40
7666;DHT22;3875;46.562;4.898;2023-02-19T05:10:21;11.90;85.50
7666;DHT22;3875;46.562;4.898;2023-02-19T05:12:47;11.90;85.50
7666;DHT22;3875;46.562;4.898;2023-02-19T05:15:12;11.80;85.60
7666;DHT22;3875;46.562;4.898;2023-02-19T05:17:38;11.80;85.60
7666;DHT22;3875;46.562;4.898;2023-02-19T05:20:04;11.90;85.60
7666;DHT22;3875;46.562;4.898;2023-02-19T05:22:29;11.90;85.50
7666;DHT22;3875;46.562;4.898;2023-02-19T05:24:55;11.90;85.30
7666;DHT22;3875;46.562;4.898;2023-02-19T05:27:21;11.90;85.30
7666;DHT22;3875;46.562;4.898;2023-02-19T05:29:46;11.80;85.30
7666;DHT22;3875;46.562;4.898;2023-02-19T05:32:12;11.80;85.40
7666;DHT22;3875;46.562;4.898;2023-02-19T05:34:38;11.80;85.50
7666;DHT22;3875;46.562;4.898;2023-02-19T05:37:03;11.80;85.50
7666;DHT22;3875;46.562;4.898;2023-02-19T05:39:29;11.80;85.50
7666;DHT22;3875;46.562;4.898;2023-02-19T05:41:54;11.80;85.60
7666;DHT22;3875;46.562;4.898;2023-02-19T05:44:20;11.80;85.80
7666;DHT22;3875;46.562;4.898;2023-02-19T05:46:46;11.80;85.80
7666;DHT22;3875;46.562;4.898;2023-02-19T05:49:12;11.80;85.80
7666;DHT22;3875;46.562;4.898;2023-02-19T05:51:37;11.90;85.60
7666;DHT22;3875;46.562;4.898;2023-02-19T05:54:03;11.90;85.80
7666;DHT22;3875;46.562;4.898;2023-02-19T05:56:40;11.80;85.80
7666;DHT22;3875;46.562;4.898;2023-02-19T05:59:14;11.80;85.80
7666;DHT22;3875;46.562;4.898;2023-02-19T06:01:40;11.80;86.00
7666;DHT22;3875;46.562;4.898;2023-02-19T06:04:05;11.80;86.00
7666;DHT22;3875;46.562;4.898;2023-02-19T06:06:31;11.80;86.00
7666;DHT22;3875;46.562;4.898;2023-02-19T06:08:57;11.80;86.00
7666;DHT22;3875;46.562;4.898;2023-02-19T06:11:23;11.80;86.00
7666;DHT22;3875;46.562;4.898;2023-02-19T06:13:49;11.80;86.00
7666;DHT22;3875;46.562;4.898;2023-02-19T06:16:15;11.80;86.00
7666;DHT22;3875;46.562;4.898;2023-02-19T06:18:44;11.70;86.10
7666;DHT22;3875;46.562;4.898;2023-02-19T06:21:11;11.70;86.30
7666;DHT22;3875;46.562;4.898;2023-02-19T06:23:37;11.70;86.40
7666;DHT22;3875;46.562;4.898;2023-02-19T06:26:15;11.70;86.30
7666;DHT22;3875;46.562;4.898;2023-02-19T06:28:45;11.80;86.20
7666;DHT22;3875;46.562;4.898;2023-02-19T06:31:11;11.80;86.20
7666;DHT22;3875;46.562;4.898;2023-02-19T06:33:38;11.80;86.10
7666;DHT22;3875;46.562;4.898;2023-02-19T06:36:11;11.80;86.10
7666;DHT22;3875;46.562;4.898;2023-02-19T06:38:37;11.80;86.20
7666;DHT22;3875;46.562;4.898;2023-02-19T06:41:04;11.80;86.20
7666;DHT22;3875;46.562;4.898;2023-02-19T06:43:31;11.80;86.00
7666;DHT22;3875;46.562;4.898;2023-02-19T06:45:57;11.80;86.00
7666;DHT22;3875;46.562;4.898;2023-02-19T06:48:25;11.90;85.90
7666;DHT22;3875;46.562;4.898;2023-02-19T06:50:50;11.80;86.00
7666;DHT22;3875;46.562;4.898;2023-02-19T06:53:16;11.80;86.10
7666;DHT22;3875;46.562;4.898;2023-02-19T06:55:42;11.80;86.20
7666;DHT22;3875;46.562;4.898;2023-02-19T06:58:07;11.80;86.30
7666;DHT22;3875;46.562;4.898;2023-02-19T07:00:33;11.80;86.20
7666;DHT22;3875;46.562;4.898;2023-02-19T07:02:59;11.80;86.10
7666;DHT22;3875;46.562;4.898;2023-02-19T07:05:25;11.90;86.10
7666;DHT22;3875;46.562;4.898;2023-02-19T07:07:51;11.90;86.10
7666;DHT22;3875;46.562;4.898;2023-02-19T07:10:17;11.90;86.10
7666;DHT22;3875;46.562;4.898;2023-02-19T07:12:42;11.90;86.20
7666;DHT22;3875;46.562;4.898;2023-02-19T07:15:08;11.90;86.30
7666;DHT22;3875;46.562;4.898;2023-02-19T07:17:34;11.70;86.90
7666;DHT22;3875;46.562;4.898;2023-02-19T07:20:00;11.70;86.90
7666;DHT22;3875;46.562;4.898;2023-02-19T07:22:25;11.70;87.00
7666;DHT22;3875;46.562;4.898;2023-02-19T07:24:51;11.70;87.00
7666;DHT22;3875;46.562;4.898;2023-02-19T07:27:17;11.70;87.00
7666;DHT22;3875;46.562;4.898;2023-02-19T07:29:42;11.80;87.00
7666;DHT22;3875;46.562;4.898;2023-02-19T07:32:08;11.80;86.80
7666;DHT22;3875;46.562;4.898;2023-02-19T07:34:34;11.80;86.80
7666;DHT22;3875;46.562;4.898;2023-02-19T07:36:59;11.90;86.80
7666;DHT22;3875;46.562;4.898;2023-02-19T07:39:25;11.90;86.80
7666;DHT22;3875;46.562;4.898;2023-02-19T07:41:51;11.90;86.80
7666;DHT22;3875;46.562;4.898;2023-02-19T07:44:16;11.90;86.90
7666;DHT22;3875;46.562;4.898;2023-02-19T07:46:43;11.80;87.20
7666;DHT22;3875;46.562;4.898;2023-02-19T07:49:09;11.80;87.20
7666;DHT22;3875;46.562;4.898;2023-02-19T07:51:35;11.80;87.30
7666;DHT22;3875;46.562;4.898;2023-02-19T07:54:01;11.80;87.30
7666;DHT22;3875;46.562;4.898;2023-02-19T07:56:26;11.80;87.40
7666;DHT22;3875;46.562;4.898;2023-02-19T07:58:53;11.80;87.40
7666;DHT22;3875;46.562;4.898;2023-02-19T08:01:21;11.70;87.60
7666;DHT22;3875;46.562;4.898;2023-02-19T08:04:13;11.70;87.70
7666;DHT22;3875;46.562;4.898;2023-02-19T08:06:40;11.70;87.70
7666;DHT22;3875;46.562;4.898;2023-02-19T08:09:06;11.70;87.70
7666;DHT22;3875;46.562;4.898;2023-02-19T08:11:31;11.70;87.80
7666;DHT22;3875;46.562;4.898;2023-02-19T08:14:16;11.70;88.00
7666;DHT22;3875;46.562;4.898;2023-02-19T08:16:49;11.60;88.30
7666;DHT22;3875;46.562;4.898;2023-02-19T08:19:15;11.60;88.30
7666;DHT22;3875;46.562;4.898;2023-02-19T08:21:41;11.70;88.40
7666;DHT22;3875;46.562;4.898;2023-02-19T08:24:06;11.60;88.60
7666;DHT22;3875;46.562;4.898;2023-02-19T08:26:33;11.50;88.80
7666;DHT22;3875;46.562;4.898;2023-02-19T08:28:59;11.60;88.90
7666;DHT22;3875;46.562;4.898;2023-02-19T08:31:25;11.60;88.90
7666;DHT22;3875;46.562;4.898;2023-02-19T08:33:51;11.70;88.90
7666;DHT22;3875;46.562;4.898;2023-02-19T08:36:17;11.70;88.50
7666;DHT22;3875;46.562;4.898;2023-02-19T08:38:43;11.80;88.40
7666;DHT22;3875;46.562;4.898;2023-02-19T08:41:10;11.90;88.50
7666;DHT22;3875;46.562;4.898;2023-02-19T08:43:36;11.90;88.50
7666;DHT22;3875;46.562;4.898;2023-02-19T08:46:03;12.00;88.50
7666;DHT22;3875;46.562;4.898;2023-02-19T08:48:29;12.10;88.40
7666;DHT22;3875;46.562;4.898;2023-02-19T08:50:56;12.20;88.30
7666;DHT22;3875;46.562;4.898;2023-02-19T08:53:22;12.20;88.30
7666;DHT22;3875;46.562;4.898;2023-02-19T08:55:48;12.20;88.50
7666;DHT22;3875;46.562;4.898;2023-02-19T08:58:13;12.20;88.50
7666;DHT22;3875;46.562;4.898;2023-02-19T09:00:39;12.30;88.50
7666;DHT22;3875;46.562;4.898;2023-02-19T09:03:05;12.40;88.40
7666;DHT22;3875;46.562;4.898;2023-02-19T09:05:31;12.60;88.10
7666;DHT22;3875;46.562;4.898;2023-02-19T09:07:56;12.80;87.70
7666;DHT22;3875;46.562;4.898;2023-02-19T09:10:22;12.90;87.40
7666;DHT22;3875;46.562;4.898;2023-02-19T09:12:48;12.90;86.60
7666;DHT22;3875;46.562;4.898;2023-02-19T09:15:14;12.80;87.00
7666;DHT22;3875;46.562;4.898;2023-02-19T09:17:39;12.80;86.80
7666;DHT22;3875;46.562;4.898;2023-02-19T09:20:05;12.80;86.80
7666;DHT22;3875;46.562;4.898;2023-02-19T09:22:31;12.80;86.90
7666;DHT22;3875;46.562;4.898;2023-02-19T09:24:57;12.70;86.90
7666;DHT22;3875;46.562;4.898;2023-02-19T09:27:23;12.70;87.30
7666;DHT22;3875;46.562;4.898;2023-02-19T09:29:48;12.70;87.40
7666;DHT22;3875;46.562;4.898;2023-02-19T09:32:14;12.70;87.50
7666;DHT22;3875;46.562;4.898;2023-02-19T09:34:40;12.70;87.30
7666;DHT22;3875;46.562;4.898;2023-02-19T09:37:06;12.60;87.50
7666;DHT22;3875;46.562;4.898;2023-02-19T09:39:34;12.70;87.90
7666;DHT22;3875;46.562;4.898;2023-02-19T09:42:16;12.80;87.70
7666;DHT22;3875;46.562;4.898;2023-02-19T09:44:45;13.00;87.20
7666;DHT22;3875;46.562;4.898;2023-02-19T09:47:23;13.20;86.70
7666;DHT22;3875;46.562;4.898;2023-02-19T09:49:55;13.30;86.30
7666;DHT22;3875;46.562;4.898;2023-02-19T09:52:37;13.40;86.40
7666;DHT22;3875;46.562;4.898;2023-02-19T09:55:13;13.70;86.10
7666;DHT22;3875;46.562;4.898;2023-02-19T09:57:39;14.00;85.20
7666;DHT22;3875;46.562;4.898;2023-02-19T10:00:22;14.20;84.60
7666;DHT22;3875;46.562;4.898;2023-02-19T10:04:00;14.40;83.80
7666;DHT22;3875;46.562;4.898;2023-02-19T10:06:20;14.30;82.30
7666;DHT22;3875;46.562;4.898;2023-02-19T10:08:51;14.10;83.10
7666;DHT22;3875;46.562;4.898;2023-02-19T10:11:18;13.80;83.60
7666;DHT22;3875;46.562;4.898;2023-02-19T10:14:04;13.80;84.10
7666;DHT22;3875;46.562;4.898;2023-02-19T10:16:35;13.80;84.00
7666;DHT22;3875;46.562;4.898;2023-02-19T10:19:08;13.80;84.10
7666;DHT22;3875;46.562;4.898;2023-02-19T10:21:37;13.90;83.50
7666;DHT22;3875;46.562;4.898;2023-02-19T10:24:05;13.90;82.70
7666;DHT22;3875;46.562;4.898;2023-02-19T10:26:31;13.80;82.60
7666;DHT22;3875;46.562;4.898;2023-02-19T10:29:02;13.90;83.30
7666;DHT22;3875;46.562;4.898;2023-02-19T10:31:30;13.90;82.20
7666;DHT22;3875;46.562;4.898;2023-02-19T10:33:58;13.80;81.80
7666;DHT22;3875;46.562;4.898;2023-02-19T10:36:38;13.80;81.80
7666;DHT22;3875;46.562;4.898;2023-02-19T10:39:36;13.70;82.30
7666;DHT22;3875;46.562;4.898;2023-02-19T10:42:03;13.60;83.00
7666;DHT22;3875;46.562;4.898;2023-02-19T10:44:34;13.40;83.00
7666;DHT22;3875;46.562;4.898;2023-02-19T10:47:01;13.30;82.70
7666;DHT22;3875;46.562;4.898;2023-02-19T10:49:36;13.10;83.10
7666;DHT22;3875;46.562;4.898;2023-02-19T10:52:16;13.00;83.00
7666;DHT22;3875;46.562;4.898;2023-02-19T10:54:45;12.70;83.50
7666;DHT22;3875;46.562;4.898;2023-02-19T10:59:59;12.70;84.00
7666;DHT22;3875;46.562;4.898;2023-02-19T11:02:27;12.70;83.20
7666;DHT22;3875;46.562;4.898;2023-02-19T11:07:36;12.80;83.10
7666;DHT22;3875;46.562;4.898;2023-02-19T11:10:04;12.90;82.90
7666;DHT22;3875;46.562;4.898;2023-02-19T11:12:33;13.00;82.00
7666;DHT22;3875;46.562;4.898;2023-02-19T11:15:16;13.10;82.40
7666;DHT22;3875;46.562;4.898;2023-02-19T11:17:44;13.20;81.70
7666;DHT22;3875;46.562;4.898;2023-02-19T11:20:14;13.30;81.60
7666;DHT22;3875;46.562;4.898;2023-02-19T11:22:43;13.50;82.00
7666;DHT22;3875;46.562;4.898;2023-02-19T11:30:41;13.70;80.50
7666;DHT22;3875;46.562;4.898;2023-02-19T11:35:46;13.80;80.70
7666;DHT22;3875;46.562;4.898;2023-02-19T11:38:14;13.70;79.20
7666;DHT22;3875;46.562;4.898;2023-02-19T11:45:47;13.80;79.80
7666;DHT22;3875;46.562;4.898;2023-02-19T11:53:34;14.00;80.40
7666;DHT22;3875;46.562;4.898;2023-02-19T11:56:20;14.20;80.20
7666;DHT22;3875;46.562;4.898;2023-02-19T11:59:08;14.30;79.00
7666;DHT22;3875;46.562;4.898;2023-02-19T12:10:14;14.90;78.70
7666;DHT22;3875;46.562;4.898;2023-02-19T12:24:36;14.60;77.90
7666;DHT22;3875;46.562;4.898;2023-02-19T12:35:44;14.20;78.80
7666;DHT22;3875;46.562;4.898;2023-02-19T12:44:13;14.60;78.40
7666;DHT22;3875;46.562;4.898;2023-02-19T12:46:52;14.70;78.60
7666;DHT22;3875;46.562;4.898;2023-02-19T12:51:51;15.10;77.30
7666;DHT22;3875;46.562;4.898;2023-02-19T12:54:34;15.10;77.30
7666;DHT22;3875;46.562;4.898;2023-02-19T12:57:13;15.20;76.90
7666;DHT22;3875;46.562;4.898;2023-02-19T12:59:45;15.20;76.60
7666;DHT22;3875;46.562;4.898;2023-02-19T13:02:39;15.10;76.30
7666;DHT22;3875;46.562;4.898;2023-02-19T13:10:35;14.90;77.20
7666;DHT22;3875;46.562;4.898;2023-02-19T13:13:08;15.10;76.80
7666;DHT22;3875;46.562;4.898;2023-02-19T13:15:42;15.20;76.20
7666;DHT22;3875;46.562;4.898;2023-02-19T13:18:24;15.30;75.50
7666;DHT22;3875;46.562;4.898;2023-02-19T13:20:52;15.50;76.00
7666;DHT22;3875;46.562;4.898;2023-02-19T13:26:23;15.80;75.40
7666;DHT22;3875;46.562;4.898;2023-02-19T13:31:52;15.60;74.60
7666;DHT22;3875;46.562;4.898;2023-02-19T13:37:04;15.40;75.10
7666;DHT22;3875;46.562;4.898;2023-02-19T13:39:30;15.40;75.50
7666;DHT22;3875;46.562;4.898;2023-02-19T13:41:57;15.20;75.20
7666;DHT22;3875;46.562;4.898;2023-02-19T13:44:30;15.00;75.20
7666;DHT22;3875;46.562;4.898;2023-02-19T13:46:57;14.60;75.80
7666;DHT22;3875;46.562;4.898;2023-02-19T14:01:07;14.40;77.20
7666;DHT22;3875;46.562;4.898;2023-02-19T14:03:44;14.50;76.90
7666;DHT22;3875;46.562;4.898;2023-02-19T14:06:10;14.50;76.60
7666;DHT22;3875;46.562;4.898;2023-02-19T14:08:56;14.50;76.90
7666;DHT22;3875;46.562;4.898;2023-02-19T14:16:51;14.30;76.70
7666;DHT22;3875;46.562;4.898;2023-02-19T14:28:27;14.10;77.60
7666;DHT22;3875;46.562;4.898;2023-02-19T14:33:43;14.10;78.00
7666;DHT22;3875;46.562;4.898;2023-02-19T14:38:51;14.40;78.00
7666;DHT22;3875;46.562;4.898;2023-02-19T14:41:20;14.50;77.80
7666;DHT22;3875;46.562;4.898;2023-02-19T14:43:52;14.60;76.90
7666;DHT22;3875;46.562;4.898;2023-02-19T14:46:37;14.60;77.30
7666;DHT22;3875;46.562;4.898;2023-02-19T14:49:28;14.50;77.40
7666;DHT22;3875;46.562;4.898;2023-02-19T14:51:58;14.50;77.50
7666;DHT22;3875;46.562;4.898;2023-02-19T14:57:18;14.20;77.70
7666;DHT22;3875;46.562;4.898;2023-02-19T14:59:54;13.90;77.60
7666;DHT22;3875;46.562;4.898;2023-02-19T15:02:20;13.90;78.10
7666;DHT22;3875;46.562;4.898;2023-02-19T15:04:46;13.90;78.00
7666;DHT22;3875;46.562;4.898;2023-02-19T15:07:27;13.80;77.50
7666;DHT22;3875;46.562;4.898;2023-02-19T15:09:57;13.80;77.70
7666;DHT22;3875;46.562;4.898;2023-02-19T15:12:58;13.70;77.60
7666;DHT22;3875;46.562;4.898;2023-02-19T15:15:30;13.70;77.70
7666;DHT22;3875;46.562;4.898;2023-02-19T15:17:58;13.70;77.20
7666;DHT22;3875;46.562;4.898;2023-02-19T15:20:28;13.50;76.90
7666;DHT22;3875;46.562;4.898;2023-02-19T15:22:57;13.30;77.30
7666;DHT22;3875;46.562;4.898;2023-02-19T15:25:26;13.30;77.50
7666;DHT22;3875;46.562;4.898;2023-02-19T15:27:53;13.20;77.30
7666;DHT22;3875;46.562;4.898;2023-02-19T15:30:23;13.20;77.70
7666;DHT22;3875;46.562;4.898;2023-02-19T15:32:57;13.10;77.40
7666;DHT22;3875;46.562;4.898;2023-02-19T15:35:25;13.10;77.40
7666;DHT22;3875;46.562;4.898;2023-02-19T15:37:51;13.10;77.70
7666;DHT22;3875;46.562;4.898;2023-02-19T15:40:25;13.20;77.70
7666;DHT22;3875;46.562;4.898;2023-02-19T15:42:53;13.20;77.20
7666;DHT22;3875;46.562;4.898;2023-02-19T15:45:25;13.00;76.90
7666;DHT22;3875;46.562;4.898;2023-02-19T15:50:29;12.80;77.30
7666;DHT22;3875;46.562;4.898;2023-02-19T15:53:10;12.80;77.30
7666;DHT22;3875;46.562;4.898;2023-02-19T16:01:09;12.90;77.60
7666;DHT22;3875;46.562;4.898;2023-02-19T16:03:38;13.00;77.40
7666;DHT22;3875;46.562;4.898;2023-02-19T16:06:08;13.00;77.20
7666;DHT22;3875;46.562;4.898;2023-02-19T16:08:38;13.00;77.10
7666;DHT22;3875;46.562;4.898;2023-02-19T16:11:24;12.80;76.80
7666;DHT22;3875;46.562;4.898;2023-02-19T16:14:14;12.80;77.30
7666;DHT22;3875;46.562;4.898;2023-02-19T16:16:39;12.80;77.50
7666;DHT22;3875;46.562;4.898;2023-02-19T16:19:05;12.80;77.60
7666;DHT22;3875;46.562;4.898;2023-02-19T16:21:31;12.90;77.50
7666;DHT22;3875;46.562;4.898;2023-02-19T16:24:02;13.00;77.60
7666;DHT22;3875;46.562;4.898;2023-02-19T16:26:37;13.00;77.30
7666;DHT22;3875;46.562;4.898;2023-02-19T16:29:03;13.00;77.20
7666;DHT22;3875;46.562;4.898;2023-02-19T16:31:29;13.00;77.50
7666;DHT22;3875;46.562;4.898;2023-02-19T16:33:55;13.00;77.50
7666;DHT22;3875;46.562;4.898;2023-02-19T16:46:56;12.60;78.00
7666;DHT22;3875;46.562;4.898;2023-02-19T16:49:22;12.60;77.90
7666;DHT22;3875;46.562;4.898;2023-02-19T16:51:48;12.60;78.20
7666;DHT22;3875;46.562;4.898;2023-02-19T16:54:15;12.60;78.10
7666;DHT22;3875;46.562;4.898;2023-02-19T16:56:41;12.60;78.00
7666;DHT22;3875;46.562;4.898;2023-02-19T16:59:06;12.60;78.00
7666;DHT22;3875;46.562;4.898;2023-02-19T17:01:34;12.40;78.00
7666;DHT22;3875;46.562;4.898;2023-02-19T17:04:04;12.30;78.20
7666;DHT22;3875;46.562;4.898;2023-02-19T17:06:31;12.20;78.60
7666;DHT22;3875;46.562;4.898;2023-02-19T17:08:59;12.10;78.70
7666;DHT22;3875;46.562;4.898;2023-02-19T17:11:25;12.20;78.90
7666;DHT22;3875;46.562;4.898;2023-02-19T17:13:51;12.20;78.80
7666;DHT22;3875;46.562;4.898;2023-02-19T17:16:25;12.10;78.80
7666;DHT22;3875;46.562;4.898;2023-02-19T17:18:52;12.20;79.00
7666;DHT22;3875;46.562;4.898;2023-02-19T17:21:29;12.30;78.90
7666;DHT22;3875;46.562;4.898;2023-02-19T17:23:56;12.40;78.70
7666;DHT22;3875;46.562;4.898;2023-02-19T17:26:24;12.40;78.60
7666;DHT22;3875;46.562;4.898;2023-02-19T17:28:50;12.40;78.50
7666;DHT22;3875;46.562;4.898;2023-02-19T17:31:16;12.40;78.40
7666;DHT22;3875;46.562;4.898;2023-02-19T17:33:42;12.40;78.50
7666;DHT22;3875;46.562;4.898;2023-02-19T17:36:21;12.40;78.60
7666;DHT22;3875;46.562;4.898;2023-02-19T17:38:47;12.40;78.40
7666;DHT22;3875;46.562;4.898;2023-02-19T17:41:13;12.40;78.60
7666;DHT22;3875;46.562;4.898;2023-02-19T17:43:38;12.40;78.70
7666;DHT22;3875;46.562;4.898;2023-02-19T17:46:04;12.40;78.80
7666;DHT22;3875;46.562;4.898;2023-02-19T17:48:30;12.40;78.80
7666;DHT22;3875;46.562;4.898;2023-02-19T17:50:55;12.40;78.80
7666;DHT22;3875;46.562;4.898;2023-02-19T17:53:21;12.40;78.90
7666;DHT22;3875;46.562;4.898;2023-02-19T17:55:47;12.40;78.70
7666;DHT22;3875;46.562;4.898;2023-02-19T17:58:13;12.40;78.90
7666;DHT22;3875;46.562;4.898;2023-02-19T18:00:38;12.40;78.90
7666;DHT22;3875;46.562;4.898;2023-02-19T18:03:04;12.40;79.00
7666;DHT22;3875;46.562;4.898;2023-02-19T18:05:31;12.40;79.00
7666;DHT22;3875;46.562;4.898;2023-02-19T18:07:57;12.40;79.00
7666;DHT22;3875;46.562;4.898;2023-02-19T18:10:23;12.40;79.10
7666;DHT22;3875;46.562;4.898;2023-02-19T18:12:49;12.40;79.00
7666;DHT22;3875;46.562;4.898;2023-02-19T18:15:24;12.30;79.10
7666;DHT22;3875;46.562;4.898;2023-02-19T18:17:52;12.30;79.10
7666;DHT22;3875;46.562;4.898;2023-02-19T18:20:26;12.30;79.00
7666;DHT22;3875;46.562;4.898;2023-02-19T18:22:52;12.20;79.30
7666;DHT22;3875;46.562;4.898;2023-02-19T18:25:19;12.10;79.40
7666;DHT22;3875;46.562;4.898;2023-02-19T18:27:45;12.10;79.50
7666;DHT22;3875;46.562;4.898;2023-02-19T18:30:12;12.10;79.60
7666;DHT22;3875;46.562;4.898;2023-02-19T18:32:39;12.10;79.60
7666;DHT22;3875;46.562;4.898;2023-02-19T18:35:05;12.10;79.50
7666;DHT22;3875;46.562;4.898;2023-02-19T18:37:31;11.90;79.30
7666;DHT22;3875;46.562;4.898;2023-02-19T18:39:59;11.70;79.80
7666;DHT22;3875;46.562;4.898;2023-02-19T18:42:25;11.60;80.20
7666;DHT22;3875;46.562;4.898;2023-02-19T18:44:51;11.60;80.20
7666;DHT22;3875;46.562;4.898;2023-02-19T18:47:18;11.60;80.40
7666;DHT22;3875;46.562;4.898;2023-02-19T18:49:46;11.60;80.50
7666;DHT22;3875;46.562;4.898;2023-02-19T18:52:12;11.50;80.50
7666;DHT22;3875;46.562;4.898;2023-02-19T18:54:38;11.50;80.50
7666;DHT22;3875;46.562;4.898;2023-02-19T18:57:05;11.30;80.50
7666;DHT22;3875;46.562;4.898;2023-02-19T18:59:33;11.20;81.00
7666;DHT22;3875;46.562;4.898;2023-02-19T19:01:59;11.00;81.30